createdAt,value
2018-11-12T06:47:25.452Z,2.47
2018-11-12T06:49:54.021Z,2.50
2018-11-12T06:52:22.524Z,2.40
2018-11-12T06:54:51.296Z,2.60
2018-11-12T06:57:19.770Z,3.00
2018-11-12T06:59:48.292Z,3.27
2018-11-12T07:02:16.952Z,3.50
2018-11-12T07:04:45.452Z,4.13
2018-11-12T07:07:14.615Z,3.83
2018-11-12T07:09:43.721Z,4.03
2018-11-12T07:12:12.359Z,4.03
2018-11-12T07:14:40.885Z,4.20
2018-11-12T07:17:10.002Z,4.77
2018-11-12T07:19:38.575Z,4.80
2018-11-12T07:22:07.059Z,4.50
2018-11-12T07:24:36.042Z,4.60
2018-11-12T07:27:04.913Z,4.23
2018-11-12T07:29:33.652Z,4.47
2018-11-12T07:32:02.258Z,5.20
2018-11-12T07:34:31.114Z,5.33
2018-11-12T07:36:59.673Z,5.17
2018-11-12T07:39:28.231Z,5.40
2018-11-12T07:41:56.963Z,4.97
2018-11-12T07:44:26.287Z,5.50
2018-11-12T07:46:54.935Z,6.17
2018-11-12T07:49:23.512Z,4.87
2018-11-12T07:51:52.045Z,5.57
2018-11-12T07:54:20.686Z,5.27
2018-11-12T07:56:49.285Z,5.77
2018-11-12T07:59:17.930Z,5.10
2018-11-12T08:01:46.612Z,5.63
2018-11-12T08:04:15.158Z,6.43
2018-11-12T08:06:43.934Z,6.13
2018-11-12T08:09:12.957Z,6.20
2018-11-12T08:11:41.883Z,5.73
2018-11-12T08:14:10.735Z,6.40
2018-11-12T08:16:39.214Z,7.30
2018-11-12T08:19:08.319Z,6.20
2018-11-12T08:21:36.884Z,6.20
2018-11-12T08:24:06.107Z,6.47
2018-11-12T08:26:34.591Z,5.33
2018-11-12T08:29:03.427Z,5.63
2018-11-12T08:31:32.079Z,5.87
2018-11-12T08:34:01.256Z,6.27
2018-11-12T08:36:30.036Z,6.33
2018-11-12T08:38:58.893Z,6.67
2018-11-12T08:41:27.455Z,7.03
2018-11-12T08:43:56.355Z,6.93
2018-11-12T08:46:24.875Z,7.20
2018-11-12T08:48:53.587Z,8.17
2018-11-12T08:51:22.229Z,9.60
2018-11-12T08:53:50.938Z,8.67
2018-11-12T08:56:19.563Z,8.40
2018-11-12T08:58:48.051Z,8.07
2018-11-12T09:01:16.601Z,8.00
2018-11-12T09:03:45.140Z,8.77
2018-11-12T09:06:13.669Z,7.97
2018-11-12T09:08:42.309Z,8.73
2018-11-12T09:11:10.838Z,8.97
2018-11-12T09:13:39.659Z,9.83
2018-11-12T09:16:08.077Z,9.80
2018-11-12T09:18:36.503Z,10.60
2018-11-12T09:21:05.198Z,10.13
2018-11-12T09:23:33.763Z,10.33
2018-11-12T09:26:08.952Z,10.40
2018-11-12T09:28:38.311Z,9.90
2018-11-12T09:31:07.891Z,9.53
2018-11-12T09:33:35.495Z,10.47
2018-11-12T09:36:04.078Z,9.33
2018-11-12T09:38:32.652Z,8.93
2018-11-12T09:41:01.230Z,9.20
2018-11-12T09:43:29.663Z,8.10
2018-11-12T09:45:58.331Z,7.50
2018-11-12T09:48:26.889Z,7.43
2018-11-12T09:50:55.398Z,7.40
2018-11-12T09:53:25.156Z,7.40
2018-11-12T09:55:53.675Z,7.00
2018-11-12T09:58:22.207Z,8.10
2018-11-12T10:00:51.048Z,7.03
2018-11-12T10:03:26.802Z,7.70
2018-11-12T10:05:57.455Z,7.83
2018-11-12T10:08:26.612Z,8.03
2018-11-12T10:10:57.153Z,7.87
2018-11-12T10:13:27.083Z,9.20
2018-11-12T10:15:55.975Z,9.03
2018-11-12T10:18:22.281Z,8.87
2018-11-12T10:20:51.222Z,9.00
2018-11-12T10:23:20.987Z,9.13
2018-11-12T10:25:49.909Z,9.13
2018-11-12T10:28:19.579Z,9.07
2018-11-12T10:30:48.338Z,9.43
2018-11-12T10:33:16.975Z,9.80
2018-11-12T10:35:45.871Z,9.97
2018-11-12T10:38:14.571Z,10.10
2018-11-12T10:40:43.335Z,9.83
2018-11-12T10:43:12.134Z,10.17
2018-11-12T10:45:40.695Z,10.53
2018-11-12T10:48:09.476Z,10.90
2018-11-12T10:50:38.165Z,10.10
2018-11-12T10:53:06.779Z,10.43
2018-11-12T10:55:35.520Z,10.07
2018-11-12T10:58:03.834Z,9.83
2018-11-12T11:00:38.616Z,10.53
2018-11-12T11:03:13.977Z,11.50
2018-11-12T11:05:43.801Z,10.60
2018-11-12T11:08:13.761Z,9.67
2018-11-12T11:10:42.483Z,8.83
2018-11-12T11:13:11.209Z,9.30
2018-11-12T11:15:40.099Z,8.93
2018-11-12T11:18:10.008Z,9.50
2018-11-12T11:20:38.574Z,9.43
2018-11-12T11:23:07.226Z,9.83
2018-11-12T11:25:36.625Z,9.00
2018-11-12T11:28:05.408Z,8.70
2018-11-12T11:30:34.198Z,8.10
2018-11-12T11:33:02.733Z,8.50
2018-11-12T11:35:31.178Z,7.83
2018-11-12T11:37:59.720Z,9.20
2018-11-12T11:40:28.735Z,9.03
2018-11-12T11:42:57.246Z,8.57
2018-11-12T11:45:25.844Z,9.03
2018-11-12T11:47:54.664Z,10.10
2018-11-12T11:50:29.998Z,10.57
2018-11-12T11:52:58.839Z,11.33
2018-11-12T11:55:28.730Z,10.77
2018-11-12T11:57:57.860Z,10.97
2018-11-12T12:00:27.940Z,11.10
2018-11-12T12:02:57.451Z,11.30
2018-11-12T12:05:26.825Z,10.97
2018-11-12T12:07:56.642Z,12.27
2018-11-12T12:10:25.193Z,12.00
2018-11-12T12:12:54.111Z,13.20
2018-11-12T12:15:23.381Z,12.80
2018-11-12T12:17:58.561Z,12.13
2018-11-12T12:20:39.736Z,11.80
2018-11-12T12:23:08.888Z,13.27
2018-11-12T12:25:37.848Z,12.60
2018-11-12T12:28:06.683Z,12.83
2018-11-12T12:30:35.640Z,10.93
2018-11-12T12:33:07.746Z,10.20
2018-11-12T12:35:57.282Z,9.80
2018-11-12T12:38:26.602Z,9.90
2018-11-12T12:40:56.384Z,9.40
2018-11-12T12:43:25.010Z,9.87
2018-11-12T12:45:56.179Z,10.87
2018-11-12T12:51:08.382Z,11.17
2018-11-12T12:53:37.127Z,10.37
2018-11-12T12:56:06.194Z,10.57
2018-11-12T12:58:35.258Z,10.23
2018-11-12T13:01:03.917Z,10.47
2018-11-12T13:03:32.812Z,10.50
2018-11-12T13:06:01.391Z,11.17
2018-11-12T13:08:29.970Z,11.07
2018-11-12T13:10:58.661Z,9.53
2018-11-12T13:13:27.143Z,9.80
2018-11-12T13:15:56.019Z,9.20
2018-11-12T13:18:24.613Z,9.33
2018-11-12T13:20:53.220Z,9.47
2018-11-12T13:23:22.091Z,8.43
2018-11-12T13:25:50.565Z,8.97
2018-11-12T13:28:19.545Z,7.83
2018-11-12T13:30:48.873Z,9.40
2018-11-12T13:33:17.434Z,8.97
2018-11-12T13:35:46.009Z,9.00
2018-11-12T13:38:14.663Z,9.03
2018-11-12T13:40:43.302Z,8.77
2018-11-12T13:43:11.931Z,8.00
2018-11-12T13:45:40.610Z,8.03
2018-11-12T13:48:09.111Z,8.13
2018-11-12T13:50:38.066Z,8.97
2018-11-12T13:53:06.824Z,9.20
2018-11-12T13:55:35.436Z,8.73
2018-11-12T13:58:03.894Z,9.07
2018-11-12T14:00:32.485Z,9.33
2018-11-12T14:03:01.828Z,9.40
2018-11-12T14:05:30.603Z,10.93
2018-11-12T14:07:59.348Z,10.50
2018-11-12T14:10:29.603Z,10.27
2018-11-12T14:12:59.250Z,10.10
2018-11-12T14:15:27.937Z,9.50
2018-11-12T14:17:57.097Z,10.10
2018-11-12T14:20:26.516Z,9.90
2018-11-12T14:22:54.979Z,9.53
2018-11-12T14:25:24.362Z,9.00
2018-11-12T14:27:54.008Z,8.40
2018-11-12T14:30:25.262Z,8.83
2018-11-12T14:32:53.907Z,8.53
2018-11-12T14:35:22.350Z,8.67
2018-11-12T14:37:51.094Z,9.17
2018-11-12T14:40:19.975Z,8.20
2018-11-12T14:42:48.547Z,8.60
2018-11-12T14:45:19.732Z,8.63
2018-11-12T14:47:48.490Z,8.90
2018-11-12T14:50:16.938Z,8.67
2018-11-12T14:52:45.627Z,9.57
2018-11-12T14:55:15.345Z,9.70
2018-11-12T14:57:43.960Z,9.57
2018-11-12T15:00:16.823Z,9.90
2018-11-12T15:02:45.396Z,9.53
2018-11-12T15:05:14.402Z,11.13
2018-11-12T15:07:43.018Z,11.17
2018-11-12T15:10:12.397Z,10.93
2018-11-12T15:12:40.945Z,10.50
2018-11-12T15:15:11.193Z,10.90
2018-11-12T15:17:39.895Z,11.90
2018-11-12T15:20:10.405Z,11.63
2018-11-12T15:22:39.136Z,11.47
2018-11-12T15:25:09.973Z,11.90
2018-11-12T15:27:38.612Z,11.83
2018-11-12T15:30:10.822Z,11.90
2018-11-12T15:32:39.702Z,10.57
2018-11-12T15:35:08.780Z,11.73
2018-11-12T15:37:37.663Z,13.23
2018-11-12T15:40:07.358Z,12.47
2018-11-12T15:42:36.097Z,15.60
2018-11-12T15:45:05.526Z,12.70
2018-11-12T15:47:34.401Z,13.27
2018-11-12T15:50:02.950Z,13.03
2018-11-12T15:52:31.499Z,12.47
2018-11-12T15:57:43.220Z,13.50
2018-11-12T16:00:14.826Z,12.17
2018-11-12T16:02:43.421Z,13.97
2018-11-12T16:05:12.888Z,15.07
2018-11-12T16:07:41.765Z,15.07
2018-11-12T16:10:12.942Z,15.47
2018-11-12T16:12:41.821Z,14.40
2018-11-12T16:15:11.517Z,15.30
2018-11-12T16:17:40.697Z,13.87
2018-11-12T16:20:19.779Z,15.47
2018-11-12T16:22:49.083Z,14.90
2018-11-12T16:25:18.125Z,13.83
2018-11-12T16:27:46.597Z,14.23
2018-11-12T16:30:15.553Z,14.50
2018-11-12T16:32:44.849Z,14.77
2018-11-12T16:35:15.268Z,13.93
2018-11-12T16:37:44.324Z,13.23
2018-11-12T16:40:12.801Z,13.97
2018-11-12T16:42:42.481Z,15.47
2018-11-12T16:45:11.719Z,14.13
2018-11-12T16:47:40.293Z,13.20
2018-11-12T16:50:09.874Z,12.40
2018-11-12T16:52:38.579Z,12.77
2018-11-12T16:55:11.513Z,13.63
2018-11-12T16:57:40.162Z,13.70
2018-11-12T17:00:11.136Z,14.00
2018-11-12T17:02:40.020Z,13.40
2018-11-12T17:05:10.532Z,11.70
2018-11-12T17:07:39.322Z,11.47
2018-11-12T17:10:10.726Z,12.20
2018-11-12T17:12:40.674Z,11.87
2018-11-12T17:15:10.179Z,13.40
2018-11-12T17:17:39.503Z,11.50
2018-11-12T17:20:08.906Z,11.27
2018-11-12T17:22:37.864Z,13.73
2018-11-12T17:25:07.847Z,11.50
2018-11-12T17:27:36.328Z,12.43
2018-11-12T17:30:05.987Z,12.60
2018-11-12T17:32:34.663Z,13.43
2018-11-12T17:35:03.218Z,12.17
2018-11-12T17:37:32.511Z,12.90
2018-11-12T17:40:01.177Z,14.10
2018-11-12T17:42:29.725Z,13.37
2018-11-12T17:44:58.333Z,14.07
2018-11-12T17:47:26.895Z,13.37
2018-11-12T17:49:55.459Z,13.33
2018-11-12T17:52:23.975Z,14.40
2018-11-12T17:54:52.523Z,13.50
2018-11-12T17:57:21.023Z,14.80
2018-11-12T17:59:50.959Z,14.67
2018-11-12T18:02:23.050Z,14.67
2018-11-12T18:04:51.933Z,14.27
2018-11-12T18:07:22.575Z,14.87
2018-11-12T18:09:51.193Z,13.97
2018-11-12T18:12:19.647Z,12.90
2018-11-12T18:14:48.279Z,14.50
2018-11-12T18:17:18.088Z,15.23
2018-11-12T18:19:46.689Z,14.60
2018-11-12T18:22:15.306Z,15.67
2018-11-12T18:24:43.837Z,15.53
2018-11-12T18:27:12.373Z,16.50
2018-11-12T18:29:43.031Z,16.23
2018-11-12T18:32:11.539Z,17.57
2018-11-12T18:34:40.455Z,17.43
2018-11-12T18:37:08.986Z,17.37
2018-11-12T18:39:37.651Z,18.90
2018-11-12T18:42:06.167Z,19.40
2018-11-12T18:44:34.773Z,19.50
2018-11-12T18:47:03.309Z,20.57
2018-11-12T18:49:31.787Z,21.00
2018-11-12T18:52:00.341Z,21.10
2018-11-12T18:54:28.862Z,22.87
2018-11-12T18:56:57.427Z,22.07
2018-11-12T18:59:25.887Z,22.80
2018-11-12T19:01:55.680Z,22.83
2018-11-12T19:04:24.219Z,21.97
2018-11-12T19:06:52.803Z,23.27
2018-11-12T19:09:21.371Z,23.33
2018-11-12T19:11:49.832Z,23.93
2018-11-12T19:14:18.399Z,24.07
2018-11-12T19:16:46.873Z,25.73
2018-11-12T19:19:15.487Z,23.80
2018-11-12T19:21:44.320Z,25.83
2018-11-12T19:24:12.864Z,25.27
2018-11-12T19:26:41.417Z,25.00
2018-11-12T19:29:10.025Z,26.80
2018-11-12T19:31:38.610Z,24.37
2018-11-12T19:34:07.132Z,24.93
2018-11-12T19:36:36.466Z,25.77
2018-11-12T19:39:06.944Z,24.37
2018-11-12T19:41:35.428Z,25.50
2018-11-12T19:44:03.902Z,26.83
2018-11-12T19:46:32.880Z,29.93
2018-11-12T19:49:01.711Z,26.83
2018-11-12T19:51:30.303Z,25.03
2018-11-12T19:53:58.868Z,28.03
2018-11-12T19:56:27.384Z,27.13
2018-11-12T19:58:57.277Z,28.40
2018-11-12T20:01:25.795Z,26.37
2018-11-12T20:03:54.385Z,27.23
2018-11-12T20:06:22.914Z,26.53
2018-11-12T20:08:51.534Z,27.13
2018-11-12T20:11:20.073Z,27.63
2018-11-12T20:13:48.633Z,27.97
2018-11-12T20:16:17.199Z,26.77
2018-11-12T20:18:45.719Z,27.03
2018-11-12T20:21:14.246Z,26.07
2018-11-12T20:23:42.788Z,27.93
2018-11-12T20:26:11.278Z,25.27
2018-11-12T20:28:39.915Z,28.10
2018-11-12T20:31:08.446Z,26.90
2018-11-12T20:33:36.947Z,28.50
2018-11-12T20:36:05.765Z,26.53
2018-11-12T20:38:34.239Z,27.43
2018-11-12T20:41:02.749Z,27.97
2018-11-12T20:43:31.305Z,27.50
2018-11-12T20:45:59.829Z,26.53
2018-11-12T20:48:28.395Z,27.93
2018-11-12T20:50:57.015Z,25.87
2018-11-12T20:53:25.551Z,27.53
2018-11-12T20:55:54.058Z,26.77
2018-11-12T20:58:22.658Z,30.93
2018-11-12T21:00:51.171Z,29.33
2018-11-12T21:03:19.701Z,28.23
2018-11-12T21:05:48.183Z,27.93
2018-11-12T21:08:16.697Z,26.53
2018-11-12T21:10:45.160Z,25.13
2018-11-12T21:13:13.666Z,27.83
2018-11-12T21:15:42.138Z,27.73
2018-11-12T21:18:10.602Z,27.07
2018-11-12T21:20:39.118Z,29.67
2018-11-12T21:23:07.622Z,29.30
2018-11-12T21:25:36.101Z,29.50
2018-11-12T21:28:04.714Z,28.10
2018-11-12T21:30:33.181Z,29.43
2018-11-12T21:33:01.717Z,27.50
2018-11-12T21:35:30.241Z,32.23
2018-11-12T21:37:58.796Z,26.67
2018-11-12T21:40:28.414Z,26.23
2018-11-12T21:42:57.040Z,25.07
2018-11-12T21:45:27.179Z,24.47
2018-11-12T21:47:55.717Z,24.23
2018-11-12T21:50:24.315Z,24.07
2018-11-12T21:52:53.219Z,22.73
2018-11-12T21:55:21.775Z,24.27
2018-11-12T21:57:50.289Z,23.80
2018-11-12T22:00:20.333Z,22.63
2018-11-12T22:02:50.150Z,22.70
2018-11-12T22:05:18.585Z,21.90
2018-11-12T22:07:47.045Z,21.33
2018-11-12T22:10:16.433Z,21.47
2018-11-12T22:12:46.120Z,22.67
2018-11-12T22:15:14.644Z,22.87
2018-11-12T22:17:43.147Z,22.80
2018-11-12T22:20:13.027Z,21.80
2018-11-12T22:22:42.230Z,22.53
2018-11-12T22:25:13.965Z,24.37
2018-11-12T22:27:43.028Z,24.07
2018-11-12T22:30:13.918Z,23.40
2018-11-12T22:32:42.780Z,24.67
2018-11-12T22:35:11.252Z,23.73
2018-11-12T22:37:39.764Z,24.60
2018-11-12T22:40:09.748Z,24.17
2018-11-12T22:42:38.502Z,23.20
2018-11-12T22:45:08.316Z,21.67
2018-11-12T22:47:36.762Z,22.73
2018-11-12T22:50:06.396Z,23.10
2018-11-12T22:52:35.234Z,24.47
2018-11-12T22:55:03.806Z,24.53
2018-11-12T22:57:32.283Z,23.50
2018-11-12T23:00:00.796Z,23.77
2018-11-12T23:02:29.235Z,25.07
2018-11-12T23:04:57.727Z,25.60
2018-11-12T23:07:26.261Z,26.47
2018-11-12T23:09:54.765Z,24.83
2018-11-12T23:12:23.281Z,24.60
2018-11-12T23:14:51.783Z,23.90
2018-11-12T23:17:20.229Z,25.37
2018-11-12T23:19:48.886Z,23.17
2018-11-12T23:22:17.345Z,23.27
2018-11-12T23:24:45.835Z,22.13
2018-11-12T23:27:14.319Z,23.77
2018-11-12T23:29:42.783Z,23.30
2018-11-12T23:32:11.249Z,21.70
2018-11-12T23:34:40.590Z,20.50
2018-11-12T23:37:09.056Z,21.63
2018-11-12T23:39:37.531Z,21.93
2018-11-12T23:42:06.350Z,21.27
2018-11-12T23:44:34.802Z,20.33
2018-11-12T23:47:03.246Z,21.50
2018-11-12T23:49:31.710Z,20.90
2018-11-12T23:52:00.179Z,20.17
2018-11-12T23:54:28.644Z,20.50
2018-11-12T23:56:57.172Z,19.67
2018-11-12T23:59:25.606Z,21.50
